Time;durP1;ratioP1;P1;durP2;ratioP2;P2;SDS_P1;SDS_P2;PMS_P1;PMS_P2;Temp;Humidity;BMP_temperature;BMP_pressure;BME280_temperature;BME280_humidity;BME280_pressure;Samples;Min_cycle;Max_cycle;Signal;HPM_P1;HPM_P2
2023/12/17 00:01:21;;;;;;;27.57;20.40;;;9.00;93.80;;;;;;4977630;28;20186;-89
2023/12/17 00:03:47;;;;;;;29.83;20.23;;;9.00;93.70;;;;;;4978367;28;20205;-89
2023/12/17 00:06:12;;;;;;;21.13;16.47;;;9.00;93.80;;;;;;4978358;28;20184;-89
2023/12/17 00:08:38;;;;;;;25.13;17.63;;;9.10;93.70;;;;;;4978271;28;20556;-89
2023/12/17 00:11:04;;;;;;;29.07;20.83;;;9.10;93.50;;;;;;4996075;28;20205;-89
2023/12/17 00:13:29;;;;;;;29.20;22.60;;;9.20;93.30;;;;;;4978985;28;20213;-89
2023/12/17 00:15:55;;;;;;;26.67;18.80;;;9.10;93.30;;;;;;4978232;28;20179;-90
2023/12/17 00:18:20;;;;;;;27.27;17.57;;;9.10;93.30;;;;;;4978119;28;20184;-90
2023/12/17 00:20:46;;;;;;;31.07;19.00;;;9.20;93.30;;;;;;4978323;28;20201;-89
2023/12/17 00:23:11;;;;;;;28.63;19.83;;;9.10;93.30;;;;;;4978235;28;20178;-90
2023/12/17 00:25:37;;;;;;;27.17;21.13;;;9.10;93.30;;;;;;4978025;28;20229;-89
2023/12/17 00:28:02;;;;;;;29.03;22.10;;;9.10;93.10;;;;;;4977955;28;20561;-90
2023/12/17 00:30:28;;;;;;;25.50;17.93;;;9.10;93.20;;;;;;4977784;28;20237;-90
2023/12/17 00:32:53;;;;;;;24.13;19.47;;;9.20;93.10;;;;;;4977656;28;20198;-89
2023/12/17 00:35:20;;;;;;;27.97;22.40;;;9.10;93.10;;;;;;4978017;28;20178;-89
2023/12/17 00:37:46;;;;;;;28.30;20.50;;;9.10;93.10;;;;;;4977882;28;20202;-88
2023/12/17 00:40:11;;;;;;;29.20;20.47;;;9.00;93.20;;;;;;4994995;28;20256;-88
2023/12/17 00:42:37;;;;;;;20.70;13.13;;;9.10;93.10;;;;;;4977698;28;20178;-87
2023/12/17 00:45:02;;;;;;;28.20;16.87;;;9.10;93.10;;;;;;4995313;28;20224;-88
2023/12/17 00:47:28;;;;;;;18.97;13.90;;;9.10;93.00;;;;;;4977934;28;20676;-88
2023/12/17 00:49:53;;;;;;;20.17;14.33;;;9.10;93.00;;;;;;4993713;28;20190;-88
2023/12/17 00:52:22;;;;;;;25.43;17.13;;;9.10;93.10;;;;;;4995110;28;20193;-88
2023/12/17 00:54:48;;;;;;;20.37;15.67;;;9.10;92.80;;;;;;4977407;28;20270;-90
2023/12/17 00:57:15;;;;;;;26.87;16.37;;;9.10;92.80;;;;;;4977256;28;20174;-89
2023/12/17 00:59:40;;;;;;;19.60;15.43;;;9.20;92.80;;;;;;4977283;28;20688;-90
2023/12/17 01:02:07;;;;;;;21.27;13.57;;;9.10;92.90;;;;;;4977385;28;20182;-89
2023/12/17 01:04:32;;;;;;;24.23;13.90;;;9.10;92.90;;;;;;4977225;28;20189;-90
2023/12/17 01:06:58;;;;;;;20.30;12.63;;;9.20;92.70;;;;;;4977748;28;20280;-89
2023/12/17 01:09:23;;;;;;;22.43;15.57;;;9.20;92.60;;;;;;4993303;28;20199;-89
2023/12/17 01:11:49;;;;;;;18.80;14.70;;;9.20;92.60;;;;;;4976985;28;20198;-90
2023/12/17 01:14:15;;;;;;;22.63;15.27;;;9.10;92.70;;;;;;4977057;28;20177;-89
2023/12/17 01:16:40;;;;;;;23.67;15.00;;;9.20;92.50;;;;;;4977043;28;20549;-89
2023/12/17 01:19:06;;;;;;;22.10;14.33;;;9.20;92.60;;;;;;4976890;28;20218;-90
2023/12/17 01:21:31;;;;;;;23.73;13.97;;;9.10;92.60;;;;;;4977300;28;20191;-90
2023/12/17 01:23:58;;;;;;;17.37;13.27;;;9.10;92.70;;;;;;4977520;28;20198;-89
2023/12/17 01:26:26;;;;;;;22.27;14.27;;;9.10;92.60;;;;;;4977124;28;20264;-89
2023/12/17 01:28:58;;;;;;;19.83;15.90;;;9.20;92.30;;;;;;4977116;28;20202;-89
2023/12/17 01:31:23;;;;;;;23.33;16.60;;;9.20;92.40;;;;;;4976635;28;20194;-90
2023/12/17 01:33:49;;;;;;;20.33;17.07;;;9.10;92.40;;;;;;4976950;28;20187;-89
2023/12/17 01:36:14;;;;;;;21.77;14.10;;;9.10;92.50;;;;;;4976831;28;20189;-90
2023/12/17 01:38:40;;;;;;;19.80;16.80;;;9.10;92.50;;;;;;4976926;28;20199;-90
2023/12/17 01:41:08;;;;;;;18.83;15.67;;;9.10;92.40;;;;;;4977612;28;20626;-89
2023/12/17 01:43:34;;;;;;;17.37;14.60;;;9.10;92.50;;;;;;4976632;28;20647;-89
2023/12/17 01:46:00;;;;;;;20.67;15.97;;;9.10;92.60;;;;;;4977074;28;20180;-90
2023/12/17 01:48:26;;;;;;;21.10;13.53;;;9.10;92.40;;;;;;4976729;28;20220;-90
2023/12/17 01:50:55;;;;;;;20.37;14.47;;;9.10;92.30;;;;;;4976560;28;20269;-90
2023/12/17 01:53:22;;;;;;;19.47;13.93;;;9.10;92.30;;;;;;4976442;28;20182;-90
2023/12/17 01:55:49;;;;;;;18.73;15.20;;;9.10;92.20;;;;;;4976553;28;20177;-89
2023/12/17 01:58:16;;;;;;;17.90;16.07;;;9.20;92.10;;;;;;4993796;28;20174;-89
2023/12/17 02:00:42;;;;;;;23.00;16.47;;;9.10;92.30;;;;;;4993955;28;20284;-89
2023/12/17 02:03:07;;;;;;;22.37;17.20;;;9.10;92.20;;;;;;4976515;28;20273;-90
2023/12/17 02:05:34;;;;;;;18.43;14.60;;;9.10;92.40;;;;;;4993783;28;20181;-90
2023/12/17 02:08:00;;;;;;;20.83;14.60;;;9.10;92.30;;;;;;4977061;28;20178;-90
2023/12/17 02:10:26;;;;;;;19.07;12.60;;;9.10;92.30;;;;;;4976157;28;20276;-90
2023/12/17 02:12:52;;;;;;;18.47;16.07;;;9.10;92.40;;;;;;4993651;28;20697;-90
2023/12/17 02:15:18;;;;;;;18.03;16.17;;;9.10;92.30;;;;;;4976274;28;20599;-89
2023/12/17 02:17:44;;;;;;;25.40;18.57;;;9.10;92.20;;;;;;4976132;28;20201;-89
2023/12/17 02:20:10;;;;;;;15.63;12.57;;;9.10;92.30;;;;;;4976205;28;20574;-90
2023/12/17 02:22:36;;;;;;;13.30;10.90;;;9.10;92.40;;;;;;4976621;28;20234;-90
2023/12/17 02:25:02;;;;;;;19.73;16.27;;;9.10;92.20;;;;;;4978719;28;20705;-90
2023/12/17 02:27:28;;;;;;;20.63;17.03;;;9.10;92.20;;;;;;4979975;28;20181;-89
2023/12/17 02:29:55;;;;;;;17.77;15.20;;;9.10;92.20;;;;;;4979999;28;20201;-89
2023/12/17 02:32:22;;;;;;;19.87;13.93;;;9.10;92.20;;;;;;4996116;28;20198;-89
2023/12/17 02:34:48;;;;;;;17.73;13.07;;;9.10;92.20;;;;;;4980085;28;20650;-89
2023/12/17 02:37:14;;;;;;;20.13;10.97;;;9.10;92.20;;;;;;4979843;28;20193;-90
2023/12/17 02:39:40;;;;;;;26.37;12.93;;;9.20;92.00;;;;;;4980096;28;20674;-90
2023/12/17 02:42:05;;;;;;;15.67;11.23;;;9.10;92.00;;;;;;4979940;28;20192;-89
2023/12/17 02:44:31;;;;;;;18.90;12.67;;;9.20;91.90;;;;;;4979965;28;20186;-90
2023/12/17 02:46:57;;;;;;;18.93;14.43;;;9.20;91.80;;;;;;4996155;28;20546;-90
2023/12/17 02:49:26;;;;;;;15.03;11.17;;;9.10;92.00;;;;;;4979683;28;20197;-89
2023/12/17 02:51:52;;;;;;;17.13;11.93;;;9.10;92.00;;;;;;4979873;28;20208;-89
2023/12/17 02:54:18;;;;;;;19.13;12.67;;;9.20;92.00;;;;;;4979733;28;20174;-89
2023/12/17 02:56:44;;;;;;;15.87;10.60;;;9.10;92.00;;;;;;4980385;28;20645;-89
2023/12/17 02:59:11;;;;;;;19.13;12.30;;;9.20;91.70;;;;;;4997162;28;20186;-89
2023/12/17 03:01:39;;;;;;;19.93;14.13;;;9.20;91.80;;;;;;4979998;28;20174;-90
2023/12/17 03:04:05;;;;;;;13.10;11.07;;;9.10;91.90;;;;;;4996945;28;20206;-89
2023/12/17 03:06:30;;;;;;;16.23;12.63;;;9.10;92.00;;;;;;4979720;28;20174;-90
2023/12/17 03:08:56;;;;;;;15.90;11.80;;;9.20;91.90;;;;;;4979500;28;20198;-90
2023/12/17 03:11:21;;;;;;;16.13;12.60;;;9.10;91.90;;;;;;4979272;28;20198;-89
2023/12/17 03:13:47;;;;;;;17.40;12.57;;;9.10;92.00;;;;;;4995577;28;20196;-90
2023/12/17 03:16:12;;;;;;;16.83;13.63;;;9.10;92.00;;;;;;4979416;28;20268;-89
2023/12/17 03:18:38;;;;;;;13.47;11.57;;;9.20;91.80;;;;;;4980205;28;20213;-90
2023/12/17 03:21:05;;;;;;;22.27;17.37;;;9.30;91.50;;;;;;4995316;28;20170;-89
2023/12/17 03:23:31;;;;;;;17.67;13.73;;;9.20;91.70;;;;;;4979465;28;20268;-90
2023/12/17 03:25:56;;;;;;;18.07;15.33;;;9.10;91.90;;;;;;4979250;28;20260;-89
2023/12/17 03:28:22;;;;;;;18.13;14.30;;;9.10;91.90;;;;;;4995619;28;20611;-90
2023/12/17 03:30:47;;;;;;;16.73;13.73;;;9.10;91.80;;;;;;4979418;28;20339;-90
2023/12/17 03:33:13;;;;;;;16.83;14.47;;;9.20;91.70;;;;;;4996678;28;20746;-90
2023/12/17 03:35:39;;;;;;;19.53;15.67;;;9.20;91.70;;;;;;4978686;28;20170;-89
2023/12/17 03:38:04;;;;;;;17.77;15.87;;;9.20;91.70;;;;;;4978899;28;20293;-90
2023/12/17 03:40:30;;;;;;;18.80;15.73;;;9.20;91.70;;;;;;4978907;28;20190;-89
2023/12/17 03:42:56;;;;;;;17.63;13.77;;;9.10;91.70;;;;;;4979196;28;20178;-89
2023/12/17 03:45:22;;;;;;;17.63;15.83;;;9.10;91.80;;;;;;4978776;28;20234;-89
2023/12/17 03:47:48;;;;;;;18.00;16.20;;;9.10;91.70;;;;;;4978808;28;20654;-89
2023/12/17 03:50:18;;;;;;;17.37;15.67;;;9.10;91.80;;;;;;4978430;28;20253;-89
2023/12/17 03:52:46;;;;;;;15.93;13.23;;;9.20;91.70;;;;;;4978498;28;20205;-90
2023/12/17 03:55:12;;;;;;;18.57;15.60;;;9.20;91.70;;;;;;4978615;28;20653;-89
2023/12/17 03:57:37;;;;;;;16.17;12.97;;;9.20;91.70;;;;;;4978525;28;20314;-89
2023/12/17 04:00:03;;;;;;;15.33;11.37;;;9.20;91.60;;;;;;4978828;28;20198;-90
2023/12/17 04:02:30;;;;;;;11.97;10.40;;;9.20;91.50;;;;;;4978388;28;20182;-89
2023/12/17 04:04:55;;;;;;;21.23;15.50;;;9.20;91.50;;;;;;4978782;28;20186;-90
2023/12/17 04:07:21;;;;;;;22.03;16.27;;;9.30;91.50;;;;;;4995779;28;20185;-90
2023/12/17 04:09:46;;;;;;;22.27;16.93;;;9.20;91.40;;;;;;4978365;28;20617;-90
2023/12/17 04:12:12;;;;;;;17.83;9.83;;;9.20;91.50;;;;;;4978393;28;20206;-90
2023/12/17 04:14:38;;;;;;;16.23;11.83;;;9.20;91.60;;;;;;4978644;28;20181;-89
2023/12/17 04:17:03;;;;;;;19.50;13.43;;;9.30;91.50;;;;;;4978293;28;20669;-90
2023/12/17 04:19:29;;;;;;;16.47;14.27;;;9.20;91.70;;;;;;4978100;28;20296;-89
2023/12/17 04:21:54;;;;;;;21.67;16.67;;;9.20;91.60;;;;;;4994636;28;20217;-89
2023/12/17 04:24:20;;;;;;;17.20;12.90;;;9.10;91.80;;;;;;4978048;28;20189;-89
2023/12/17 04:26:45;;;;;;;13.03;10.60;;;9.10;91.90;;;;;;4978745;28;20193;-90
2023/12/17 04:29:11;;;;;;;17.73;10.57;;;9.10;91.90;;;;;;4995523;28;20257;-90
2023/12/17 04:31:37;;;;;;;15.73;11.90;;;9.20;91.80;;;;;;4978209;28;20753;-89
2023/12/17 04:34:02;;;;;;;18.73;11.30;;;9.20;91.80;;;;;;4977917;28;20549;-89
2023/12/17 04:36:28;;;;;;;16.93;11.00;;;9.20;91.90;;;;;;4994029;28;20665;-90
2023/12/17 04:38:53;;;;;;;13.87;11.60;;;9.20;91.90;;;;;;4977802;28;20209;-89
2023/12/17 04:41:19;;;;;;;14.80;11.40;;;9.10;92.00;;;;;;4995121;28;20225;-90
2023/12/17 04:43:44;;;;;;;14.73;12.00;;;9.20;91.90;;;;;;4978588;28;20659;-89
2023/12/17 04:46:10;;;;;;;18.27;12.20;;;9.20;92.00;;;;;;4977825;28;20653;-90
2023/12/17 04:48:36;;;;;;;15.40;12.50;;;9.10;92.00;;;;;;4994041;28;20186;-90
2023/12/17 04:51:02;;;;;;;13.00;11.73;;;9.20;92.00;;;;;;4977764;28;20224;-90
2023/12/17 04:53:27;;;;;;;21.23;12.50;;;9.20;92.00;;;;;;4977503;28;20221;-90
2023/12/17 04:55:53;;;;;;;14.73;11.57;;;9.20;92.10;;;;;;4977939;28;20178;-90
2023/12/17 04:58:18;;;;;;;13.93;12.40;;;9.10;92.20;;;;;;4994083;28;20174;-89
2023/12/17 05:00:44;;;;;;;18.77;11.63;;;9.10;92.10;;;;;;4994949;28;20190;-89
2023/12/17 05:03:09;;;;;;;13.57;11.37;;;9.10;92.10;;;;;;4977642;28;20174;-89
2023/12/17 05:05:35;;;;;;;14.77;10.97;;;9.20;92.20;;;;;;4994763;28;20233;-89
2023/12/17 05:08:01;;;;;;;16.77;12.10;;;9.20;92.00;;;;;;4977266;28;20265;-90
2023/12/17 05:10:27;;;;;;;11.20;9.03;;;9.20;91.90;;;;;;4977123;28;20202;-90
2023/12/17 05:12:55;;;;;;;16.37;14.63;;;9.20;92.00;;;;;;4993465;28;20577;-89
2023/12/17 05:15:22;;;;;;;15.63;14.00;;;9.20;91.90;;;;;;4977463;28;20225;-89
2023/12/17 05:17:48;;;;;;;13.33;11.93;;;9.20;91.90;;;;;;4977092;28;20277;-89
2023/12/17 05:20:13;;;;;;;16.67;14.10;;;9.20;91.80;;;;;;4978491;28;20255;-89
2023/12/17 05:22:39;;;;;;;14.10;12.23;;;9.20;91.90;;;;;;4976963;28;20217;-89
2023/12/17 05:25:05;;;;;;;18.03;13.20;;;9.20;92.00;;;;;;4994655;28;20182;-90
2023/12/17 05:27:30;;;;;;;16.37;14.73;;;9.20;91.90;;;;;;4977241;28;20269;-90
2023/12/17 05:29:56;;;;;;;14.37;12.87;;;9.30;91.60;;;;;;4993122;28;20341;-90
2023/12/17 05:32:22;;;;;;;15.90;14.40;;;9.30;91.50;;;;;;4977002;28;20237;-89
2023/12/17 05:34:47;;;;;;;17.73;13.30;;;9.30;91.70;;;;;;4977503;28;20638;-90
2023/12/17 05:37:13;;;;;;;16.30;13.63;;;9.30;91.50;;;;;;4976980;28;20309;-89
2023/12/17 05:39:38;;;;;;;13.57;12.27;;;9.30;91.50;;;;;;4976697;28;20578;-90
2023/12/17 05:42:04;;;;;;;14.83;12.50;;;9.30;91.60;;;;;;4994549;28;20178;-89
2023/12/17 05:44:30;;;;;;;14.73;13.20;;;9.30;91.70;;;;;;4976681;28;20182;-89
2023/12/17 05:46:55;;;;;;;16.30;14.70;;;9.30;91.70;;;;;;4976729;28;20217;-89
2023/12/17 05:49:21;;;;;;;12.50;11.30;;;9.20;91.70;;;;;;4976484;28;20692;-89
2023/12/17 05:51:48;;;;;;;11.10;9.30;;;9.30;91.70;;;;;;4993914;28;20194;-89
2023/12/17 05:54:13;;;;;;;12.17;10.20;;;9.30;91.70;;;;;;4976582;28;20178;-89
2023/12/17 05:56:40;;;;;;;16.47;13.97;;;9.30;91.60;;;;;;4992729;28;20182;-90
2023/12/17 05:59:06;;;;;;;16.17;14.43;;;9.30;91.60;;;;;;4975553;28;20666;-89
2023/12/17 06:01:31;;;;;;;12.93;10.20;;;9.30;91.60;;;;;;4976436;28;20182;-90
2023/12/17 06:03:57;;;;;;;14.30;9.33;;;9.20;91.60;;;;;;4976492;28;20189;-89
2023/12/17 06:06:22;;;;;;;10.63;8.60;;;9.30;91.60;;;;;;4976486;28;20190;-89
2023/12/17 06:08:48;;;;;;;13.57;12.40;;;9.30;91.50;;;;;;4992524;28;20694;-90
2023/12/17 06:11:16;;;;;;;14.23;13.00;;;9.30;91.50;;;;;;4976389;28;20668;-90
2023/12/17 06:13:42;;;;;;;10.57;9.37;;;9.30;91.50;;;;;;4976317;28;20181;-89
2023/12/17 06:16:08;;;;;;;10.00;9.07;;;9.30;91.40;;;;;;4992487;28;20268;-89
2023/12/17 06:18:34;;;;;;;10.43;8.77;;;9.30;91.40;;;;;;4992303;28;20264;-90
2023/12/17 06:21:01;;;;;;;12.87;9.10;;;9.30;91.40;;;;;;4992424;28;20654;-90
2023/12/17 06:23:27;;;;;;;10.37;9.20;;;9.30;91.40;;;;;;4992345;28;20174;-89
2023/12/17 06:25:53;;;;;;;10.10;8.30;;;9.30;91.40;;;;;;4993540;28;20224;-89
2023/12/17 06:28:22;;;;;;;13.00;8.87;;;9.40;91.20;;;;;;4992767;28;20175;-89
2023/12/17 06:30:48;;;;;;;10.27;8.70;;;9.30;91.40;;;;;;4976285;28;20673;-90
2023/12/17 06:33:13;;;;;;;10.37;9.00;;;9.30;91.30;;;;;;4993606;28;20241;-89
2023/12/17 06:35:39;;;;;;;8.53;7.33;;;9.30;91.30;;;;;;4993642;28;20178;-89
2023/12/17 06:38:05;;;;;;;13.40;7.37;;;9.30;91.30;;;;;;4994256;28;20645;-89
2023/12/17 06:40:31;;;;;;;8.23;6.60;;;9.40;90.90;;;;;;4992309;28;20224;-89
2023/12/17 06:42:57;;;;;;;10.30;9.03;;;9.40;90.70;;;;;;4992343;28;20650;-90
2023/12/17 06:45:23;;;;;;;14.10;10.17;;;9.40;90.80;;;;;;4993172;28;20214;-89
2023/12/17 06:47:49;;;;;;;14.07;8.77;;;9.40;90.80;;;;;;4975906;28;20181;-90
2023/12/17 06:50:15;;;;;;;11.70;9.10;;;9.30;91.20;;;;;;4976075;28;20202;-89
2023/12/17 06:52:41;;;;;;;14.33;9.87;;;9.40;91.10;;;;;;4976045;28;20201;-89
2023/12/17 06:55:07;;;;;;;14.73;9.60;;;9.30;91.20;;;;;;4976251;28;20182;-90
2023/12/17 06:57:33;;;;;;;13.43;9.00;;;9.30;91.30;;;;;;4976027;28;20201;-89
2023/12/17 06:59:58;;;;;;;9.67;8.13;;;9.30;91.30;;;;;;4975947;28;20195;-89
2023/12/17 07:02:24;;;;;;;14.13;12.40;;;9.40;91.10;;;;;;4992121;28;20178;-90
2023/12/17 07:04:49;;;;;;;18.17;12.43;;;9.30;91.20;;;;;;4975889;28;20639;-89
2023/12/17 07:07:15;;;;;;;14.53;13.33;;;9.30;91.10;;;;;;4975835;28;20190;-90
2023/12/17 07:09:40;;;;;;;15.47;13.27;;;9.30;91.20;;;;;;4976215;28;20206;-90
2023/12/17 07:12:06;;;;;;;13.97;12.77;;;9.30;91.00;;;;;;4979385;28;20261;-90
2023/12/17 07:14:32;;;;;;;12.70;11.60;;;9.30;91.00;;;;;;4996790;28;20260;-89
2023/12/17 07:16:57;;;;;;;11.93;10.73;;;9.30;91.00;;;;;;4979316;28;20224;-90
2023/12/17 07:19:23;;;;;;;13.73;12.47;;;9.30;90.90;;;;;;4979549;28;20330;-90
2023/12/17 07:21:48;;;;;;;13.53;12.13;;;9.30;90.80;;;;;;4996905;28;20653;-90
2023/12/17 07:24:14;;;;;;;13.00;11.73;;;9.30;90.80;;;;;;4979712;28;20613;-90
2023/12/17 07:26:40;;;;;;;15.83;11.73;;;9.30;90.70;;;;;;4995443;28;20190;-89
2023/12/17 07:29:05;;;;;;;14.13;12.00;;;9.30;90.70;;;;;;4978998;28;20284;-90
2023/12/17 07:31:31;;;;;;;13.80;11.17;;;9.30;90.60;;;;;;4995902;28;20257;-90
2023/12/17 07:33:56;;;;;;;13.50;11.73;;;9.30;90.50;;;;;;4996438;28;20201;-90
2023/12/17 07:36:22;;;;;;;14.00;12.57;;;9.30;90.50;;;;;;4979313;28;20178;-90
2023/12/17 07:38:47;;;;;;;13.90;12.30;;;9.30;90.60;;;;;;4979183;28;20300;-91
2023/12/17 07:41:13;;;;;;;16.93;12.47;;;9.30;90.70;;;;;;4978867;28;20265;-90
2023/12/17 07:43:38;;;;;;;11.27;9.37;;;9.30;90.80;;;;;;4979042;28;20377;-90
2023/12/17 07:46:04;;;;;;;11.73;9.17;;;9.30;90.80;;;;;;4978874;28;20196;-90
2023/12/17 07:48:29;;;;;;;15.80;12.20;;;9.30;90.80;;;;;;4994908;28;20672;-89
2023/12/17 07:50:55;;;;;;;14.70;13.30;;;9.20;90.90;;;;;;4978794;28;20659;-90
2023/12/17 07:53:21;;;;;;;13.60;12.20;;;9.20;90.80;;;;;;4978787;28;20202;-90
2023/12/17 07:55:47;;;;;;;11.23;10.10;;;9.30;90.50;;;;;;4978732;28;20192;-89
2023/12/17 07:58:14;;;;;;;13.90;10.50;;;9.40;90.00;;;;;;4996061;28;20173;-90
2023/12/17 08:00:39;;;;;;;13.70;12.30;;;9.40;89.70;;;;;;4995174;28;20578;-91
2023/12/17 08:03:05;;;;;;;17.03;13.00;;;9.30;90.20;;;;;;4978772;28;20181;-91
2023/12/17 08:05:30;;;;;;;14.57;9.27;;;9.30;90.30;;;;;;4979372;28;20182;-88
2023/12/17 08:07:56;;;;;;;10.97;9.83;;;9.30;90.40;;;;;;4979263;28;20774;-90
2023/12/17 08:10:21;;;;;;;10.57;8.30;;;9.30;90.40;;;;;;4995428;28;20194;-90
2023/12/17 08:12:47;;;;;;;11.27;10.17;;;9.40;89.80;;;;;;4994992;28;20202;-90
2023/12/17 08:15:12;;;;;;;16.53;9.50;;;9.40;89.80;;;;;;4996088;28;20189;-89
2023/12/17 08:17:38;;;;;;;12.37;9.47;;;9.40;89.90;;;;;;4994515;28;20289;-90
2023/12/17 08:20:04;;;;;;;12.07;9.27;;;9.40;89.70;;;;;;4994542;28;20194;-89
2023/12/17 08:22:29;;;;;;;12.73;9.80;;;9.40;89.80;;;;;;4977302;28;20186;-89
2023/12/17 08:24:55;;;;;;;14.23;10.50;;;9.40;89.90;;;;;;4994392;28;20187;-89
2023/12/17 08:27:20;;;;;;;15.97;10.83;;;9.30;89.90;;;;;;4978952;28;20580;-89
2023/12/17 08:29:47;;;;;;;12.80;10.80;;;9.30;90.20;;;;;;4978572;28;20222;-89
2023/12/17 08:32:14;;;;;;;19.53;11.57;;;9.30;90.40;;;;;;4978164;28;20681;-90
2023/12/17 08:34:40;;;;;;;11.80;10.23;;;9.30;90.50;;;;;;4978540;28;20602;-91
2023/12/17 08:37:05;;;;;;;14.40;11.40;;;9.30;90.50;;;;;;4978477;28;20193;-90
2023/12/17 08:39:31;;;;;;;17.20;12.33;;;9.30;90.70;;;;;;4978639;28;20198;-92
2023/12/17 08:41:57;;;;;;;12.97;10.67;;;9.30;90.90;;;;;;4979720;28;20182;-92
2023/12/17 08:44:25;;;;;;;12.53;11.20;;;9.30;90.80;;;;;;4979139;28;20214;-92
2023/12/17 08:46:51;;;;;;;9.03;8.23;;;9.30;90.60;;;;;;4979860;28;20185;-92
2023/12/17 08:49:16;;;;;;;13.47;11.63;;;9.50;89.50;;;;;;4980014;28;20570;-93
2023/12/17 08:51:42;;;;;;;14.90;11.33;;;9.40;90.10;;;;;;4979381;28;20198;-92
2023/12/17 08:54:12;;;;;;;12.90;10.27;;;9.30;90.00;;;;;;4983056;28;20261;-91
2023/12/17 08:56:38;;;;;;;19.83;14.77;;;9.40;90.10;;;;;;4979692;28;20170;-91
2023/12/17 08:59:04;;;;;;;20.23;13.40;;;9.30;89.70;;;;;;4979664;28;20729;-91
2023/12/17 09:01:29;;;;;;;18.97;16.23;;;9.40;89.80;;;;;;4981406;28;20182;-92
2023/12/17 09:03:55;;;;;;;18.87;14.80;;;9.30;89.70;;;;;;4978538;28;20205;-91
2023/12/17 09:06:20;;;;;;;14.63;13.27;;;9.40;89.40;;;;;;4978571;28;20498;-91
2023/12/17 09:08:46;;;;;;;16.77;14.97;;;9.30;89.70;;;;;;4978050;28;20681;-91
2023/12/17 09:11:11;;;;;;;16.77;15.00;;;9.30;90.00;;;;;;4977958;28;20180;-92
2023/12/17 09:13:37;;;;;;;15.97;13.90;;;9.30;90.10;;;;;;4977952;28;20174;-92
2023/12/17 09:16:05;;;;;;;20.33;17.17;;;9.30;90.00;;;;;;4978201;28;20281;-93
2023/12/17 09:18:30;;;;;;;16.17;14.67;;;9.30;90.20;;;;;;4995859;28;20180;-91
2023/12/17 09:20:56;;;;;;;17.27;14.87;;;9.40;89.70;;;;;;4978505;28;20260;-91
2023/12/17 09:23:21;;;;;;;19.17;15.83;;;9.30;90.10;;;;;;4977701;28;20170;-91
2023/12/17 09:25:47;;;;;;;18.33;16.07;;;9.30;89.90;;;;;;4977185;28;20174;-91
2023/12/17 09:28:13;;;;;;;18.33;15.50;;;9.40;90.00;;;;;;4979020;28;20595;-91
2023/12/17 09:30:38;;;;;;;17.87;15.87;;;9.30;90.20;;;;;;4978215;28;20205;-92
2023/12/17 09:33:04;;;;;;;16.33;14.63;;;9.30;90.30;;;;;;4977312;28;20205;-91
2023/12/17 09:35:29;;;;;;;16.37;14.77;;;9.30;90.30;;;;;;4977672;28;20174;-91
2023/12/17 09:37:55;;;;;;;19.67;17.17;;;9.30;90.00;;;;;;4977902;28;20288;-90
2023/12/17 09:40:20;;;;;;;16.23;10.93;;;9.30;90.20;;;;;;4997948;28;20253;-91
2023/12/17 09:42:52;;;;;;;20.73;12.57;;;9.30;90.10;;;;;;4994572;28;20198;-90
2023/12/17 09:45:18;;;;;;;16.00;11.73;;;9.30;89.80;;;;;;4978329;28;20657;-90
2023/12/17 09:47:44;;;;;;;18.20;16.33;;;9.30;90.00;;;;;;4977232;28;20193;-91
2023/12/17 09:50:11;;;;;;;18.43;16.47;;;9.30;89.90;;;;;;4977547;28;20193;-91
2023/12/17 09:52:42;;;;;;;18.67;11.40;;;9.30;90.20;;;;;;4980581;28;20208;-91
2023/12/17 09:55:10;;;;;;;19.23;12.37;;;9.30;90.10;;;;;;4978851;28;20528;-90
2023/12/17 09:57:35;;;;;;;16.63;15.00;;;9.30;90.10;;;;;;4977197;28;20546;-92
2023/12/17 10:00:02;;;;;;;14.73;13.17;;;9.30;90.10;;;;;;4976931;28;20194;-90
2023/12/17 10:02:27;;;;;;;24.37;18.17;;;9.40;89.90;;;;;;4977778;28;20213;-91
2023/12/17 10:04:53;;;;;;;13.40;12.00;;;9.40;90.00;;;;;;4976661;28;20210;-91
2023/12/17 10:07:19;;;;;;;12.33;11.13;;;9.30;89.80;;;;;;4976519;28;20170;-91
2023/12/17 10:09:44;;;;;;;15.13;12.87;;;9.30;89.90;;;;;;4976643;28;20202;-91
2023/12/17 10:12:10;;;;;;;15.40;12.43;;;9.30;90.00;;;;;;4977440;28;20208;-92
2023/12/17 10:14:35;;;;;;;14.13;10.80;;;9.40;89.80;;;;;;4977109;28;20182;-92
2023/12/17 10:17:01;;;;;;;14.30;11.93;;;9.40;89.50;;;;;;4993006;28;20182;-92
2023/12/17 10:19:27;;;;;;;10.80;9.70;;;9.40;89.50;;;;;;4977199;28;20194;-92
2023/12/17 10:21:52;;;;;;;12.27;11.20;;;9.30;89.60;;;;;;4993645;28;20189;-92
2023/12/17 10:24:18;;;;;;;11.23;10.10;;;9.40;89.10;;;;;;4977282;28;20185;-91
2023/12/17 10:26:48;;;;;;;11.80;10.60;;;9.30;89.10;;;;;;4977250;28;20551;-91
2023/12/17 10:29:18;;;;;;;18.67;12.67;;;9.30;89.50;;;;;;4976707;28;20578;-90
2023/12/17 10:31:45;;;;;;;14.97;12.70;;;9.30;89.50;;;;;;4977553;28;20205;-92
2023/12/17 10:34:22;;;;;;;15.73;13.13;;;9.30;89.70;;;;;;4977224;28;20630;-91
2023/12/17 10:36:51;;;;;;;16.37;12.33;;;9.30;89.80;;;;;;4976532;28;20196;-91
2023/12/17 10:39:19;;;;;;;15.83;12.87;;;9.30;89.90;;;;;;4976659;28;20232;-91
2023/12/17 10:41:47;;;;;;;17.23;12.73;;;9.40;89.90;;;;;;4976737;28;20189;-92
2023/12/17 10:44:14;;;;;;;16.27;12.47;;;9.40;89.90;;;;;;4976472;28;20230;-91
2023/12/17 10:46:44;;;;;;;15.27;11.73;;;9.40;89.90;;;;;;4980140;28;20182;-91
2023/12/17 10:49:13;;;;;;;13.10;10.70;;;9.40;89.70;;;;;;4996591;28;20209;-91
2023/12/17 10:51:40;;;;;;;13.80;12.40;;;9.40;89.70;;;;;;4980114;28;20300;-91
2023/12/17 10:54:07;;;;;;;12.87;11.67;;;9.40;89.50;;;;;;4980181;28;20178;-90
2023/12/17 10:56:38;;;;;;;17.00;15.50;;;9.40;89.50;;;;;;4980130;28;20233;-92
2023/12/17 10:59:08;;;;;;;17.50;15.90;;;9.40;89.70;;;;;;4980226;28;20193;-92
2023/12/17 11:01:36;;;;;;;16.47;14.97;;;9.30;89.70;;;;;;4996662;28;20652;-92
2023/12/17 11:04:03;;;;;;;16.33;14.97;;;9.40;89.70;;;;;;4997978;28;20174;-92
2023/12/17 11:06:28;;;;;;;19.10;17.20;;;9.40;89.50;;;;;;4980671;28;20210;-92
2023/12/17 11:08:54;;;;;;;17.80;16.20;;;9.40;89.60;;;;;;4980021;28;20226;-92
2023/12/17 11:11:22;;;;;;;19.00;16.83;;;9.40;89.80;;;;;;4979692;28;20186;-92
2023/12/17 11:13:48;;;;;;;16.77;14.90;;;9.40;89.90;;;;;;4979738;28;20181;-91
2023/12/17 11:16:24;;;;;;;17.60;16.00;;;9.40;89.90;;;;;;4979710;28;20178;-91
2023/12/17 11:18:53;;;;;;;19.47;17.50;;;9.50;89.60;;;;;;4979856;28;20201;-91
2023/12/17 11:21:19;;;;;;;19.13;17.23;;;9.50;89.70;;;;;;4979670;28;20645;-91
2023/12/17 11:23:54;;;;;;;20.47;18.57;;;9.50;89.70;;;;;;4979662;28;20174;-91
2023/12/17 11:26:19;;;;;;;21.20;17.83;;;9.60;89.70;;;;;;4979503;28;20173;-91
2023/12/17 11:28:45;;;;;;;16.87;15.47;;;9.50;89.60;;;;;;4996640;28;20193;-90
2023/12/17 11:31:12;;;;;;;17.23;15.87;;;9.50;89.50;;;;;;4979239;28;20178;-91
2023/12/17 11:33:39;;;;;;;13.67;12.40;;;9.60;89.30;;;;;;4979495;28;20178;-91
2023/12/17 11:36:10;;;;;;;14.70;13.30;;;9.60;89.20;;;;;;4979527;28;20272;-91
2023/12/17 11:38:36;;;;;;;18.87;17.23;;;9.60;89.50;;;;;;4996556;28;20190;-91
2023/12/17 11:41:03;;;;;;;20.57;15.73;;;9.70;89.50;;;;;;4979427;28;20269;-91
2023/12/17 11:43:32;;;;;;;18.20;16.57;;;9.80;89.40;;;;;;4979051;28;20185;-91
2023/12/17 11:45:58;;;;;;;12.73;11.43;;;9.80;89.20;;;;;;4979088;28;20322;-92
2023/12/17 11:48:25;;;;;;;14.33;11.70;;;9.80;89.20;;;;;;4979620;28;20241;-91
2023/12/17 11:50:58;;;;;;;17.57;15.77;;;9.80;89.10;;;;;;4980404;28;20289;-91
2023/12/17 11:53:26;;;;;;;19.13;17.13;;;9.80;88.80;;;;;;4996894;28;20186;-91
2023/12/17 11:55:56;;;;;;;17.27;15.70;;;9.90;89.10;;;;;;4979400;28;20169;-91
2023/12/17 11:58:23;;;;;;;18.37;11.63;;;9.80;89.30;;;;;;4978617;28;20630;-92
2023/12/17 12:01:09;;;;;;;11.60;9.27;;;9.70;89.40;;;;;;4979177;28;20223;-91
2023/12/17 12:03:36;;;;;;;9.83;8.03;;;9.70;89.40;;;;;;4979176;28;20684;-92
2023/12/17 12:06:09;;;;;;;11.40;10.33;;;9.70;89.20;;;;;;4978808;28;20711;-91
2023/12/17 12:08:36;;;;;;;13.20;9.57;;;9.60;89.50;;;;;;4978691;28;20246;-91
2023/12/17 12:11:04;;;;;;;11.63;10.10;;;9.70;89.50;;;;;;4979198;28;20178;-92
2023/12/17 12:13:31;;;;;;;11.90;10.70;;;9.80;89.20;;;;;;4979393;28;20244;-92
2023/12/17 12:16:00;;;;;;;15.30;11.33;;;9.80;89.30;;;;;;4981719;28;20664;-92
2023/12/17 12:18:26;;;;;;;15.00;11.10;;;9.70;89.50;;;;;;4985171;28;20174;-92
2023/12/17 12:20:53;;;;;;;14.53;9.57;;;9.70;89.50;;;;;;4983445;28;20185;-91
2023/12/17 12:23:19;;;;;;;14.50;10.40;;;9.80;89.40;;;;;;4980798;28;20210;-92
2023/12/17 12:25:45;;;;;;;10.83;9.83;;;9.70;89.20;;;;;;4981486;28;20189;-92
2023/12/17 12:28:19;;;;;;;13.47;10.03;;;9.60;89.30;;;;;;4995903;28;20189;-92
2023/12/17 12:30:45;;;;;;;12.20;10.40;;;9.70;89.30;;;;;;4979917;28;20202;-91
2023/12/17 12:33:12;;;;;;;13.17;10.70;;;9.70;89.50;;;;;;4979677;28;20229;-92